Time;durP1;ratioP1;P1;durP2;ratioP2;P2;SDS_P1;SDS_P2;PMS_P1;PMS_P2;Temp;Humidity;BMP_temperature;BMP_pressure;BME280_temperature;BME280_humidity;BME280_pressure;Samples;Min_cycle;Max_cycle;Signal;HPM_P1;HPM_P2
2023/06/17 00:02:16;;;;;;;12.32;7.30;;;;;;;13.97;69.54;101662.53;4860282;29;20351;-79
2023/06/17 00:04:41;;;;;;;9.70;6.22;;;;;;;13.94;69.25;101665.31;4860126;29;20423;-79
2023/06/17 00:07:07;;;;;;;8.65;6.50;;;;;;;13.89;69.88;101656.16;4860274;29;20034;-79
2023/06/17 00:09:32;;;;;;;9.27;6.30;;;;;;;13.70;70.11;101633.13;4860067;29;20478;-79
2023/06/17 00:11:58;;;;;;;8.35;5.68;;;;;;;13.70;70.38;101646.94;4860229;29;20044;-80
2023/06/17 00:14:23;;;;;;;11.10;6.18;;;;;;;13.81;70.65;101666.19;4843431;29;20029;-79
2023/06/17 00:16:50;;;;;;;7.40;5.43;;;;;;;13.84;71.10;101653.84;4859859;29;20057;-78
2023/06/17 00:19:15;;;;;;;10.18;6.28;;;;;;;13.75;71.22;101652.66;4859771;29;20054;-79
2023/06/17 00:21:49;;;;;;;9.25;5.90;;;;;;;13.69;71.50;101644.44;4860090;29;20041;-79
2023/06/17 00:24:17;;;;;;;11.85;6.22;;;;;;;13.57;71.87;101635.66;4860060;29;20029;-77
2023/06/17 00:26:42;;;;;;;9.65;6.60;;;;;;;13.38;72.37;101612.63;4860192;29;20423;-78
2023/06/17 00:29:08;;;;;;;8.35;6.30;;;;;;;13.44;72.67;101626.97;4859807;29;20027;-77
2023/06/17 00:31:34;;;;;;;8.18;6.22;;;;;;;13.50;72.75;101642.16;4859812;29;20109;-77
2023/06/17 00:34:00;;;;;;;15.85;6.82;;;;;;;13.47;73.29;101650.97;4858495;29;20045;-77
2023/06/17 00:36:25;;;;;;;10.18;7.00;;;;;;;13.41;73.20;101646.16;4859672;29;20124;-77
2023/06/17 00:38:51;;;;;;;13.05;6.88;;;;;;;13.38;73.28;101650.72;4859690;29;20029;-78
2023/06/17 00:41:16;;;;;;;11.55;7.60;;;;;;;13.17;73.63;101624.28;4859730;29;20116;-77
2023/06/17 00:43:42;;;;;;;12.88;7.68;;;;;;;13.25;73.74;101653.19;4843623;29;20025;-77
2023/06/17 00:46:10;;;;;;;13.57;7.50;;;;;;;13.12;73.77;101636.69;4859801;29;20363;-78
2023/06/17 00:48:35;;;;;;;9.52;7.80;;;;;;;13.16;73.93;101654.56;4859727;29;20037;-78
2023/06/17 00:51:02;;;;;;;13.57;8.30;;;;;;;13.18;73.97;101650.13;4861977;29;20036;-77
2023/06/17 00:53:31;;;;;;;11.40;8.23;;;;;;;13.15;74.42;101655.50;4862966;29;20120;-77
2023/06/17 00:55:58;;;;;;;11.27;8.60;;;;;;;13.08;74.42;101648.19;4863225;29;20078;-78
2023/06/17 00:58:26;;;;;;;10.25;8.65;;;;;;;13.06;75.04;101656.03;4863103;29;20474;-78
2023/06/17 01:00:51;;;;;;;11.60;8.98;;;;;;;12.99;75.50;101651.34;4860138;29;20038;-78
2023/06/17 01:03:17;;;;;;;12.20;8.68;;;;;;;12.99;75.82;101648.75;4862965;29;20025;-78
2023/06/17 01:05:45;;;;;;;9.10;7.75;;;;;;;12.93;76.38;101645.56;4863074;29;20104;-77
2023/06/17 01:08:20;;;;;;;9.98;8.30;;;;;;;12.89;76.30;101641.50;4863448;29;20385;-78
2023/06/17 01:10:51;;;;;;;10.77;8.18;;;;;;;12.87;76.82;101645.94;4862081;29;20109;-78
2023/06/17 01:13:18;;;;;;;13.60;8.68;;;;;;;12.76;77.04;101632.78;4863451;29;20363;-78
2023/06/17 01:15:45;;;;;;;10.43;9.05;;;;;;;12.55;77.45;101608.97;4862844;29;20030;-78
2023/06/17 01:18:11;;;;;;;9.93;8.50;;;;;;;12.70;77.71;101638.34;4862730;29;20137;-77
2023/06/17 01:20:37;;;;;;;11.07;8.63;;;;;;;12.67;78.06;101641.09;4862660;29;20041;-78
2023/06/17 01:23:05;;;;;;;11.80;8.55;;;;;;;12.58;78.21;101631.28;4862738;29;20029;-77
2023/06/17 01:25:31;;;;;;;15.05;9.32;;;;;;;12.52;78.41;101622.13;4862830;29;20033;-78
2023/06/17 01:28:00;;;;;;;9.93;8.55;;;;;;;12.56;78.97;101633.13;4862502;29;20048;-77
2023/06/17 01:30:29;;;;;;;10.48;8.52;;;;;;;12.40;78.87;101616.81;4862626;29;20033;-78
2023/06/17 01:32:59;;;;;;;13.00;9.93;;;;;;;12.38;79.06;101610.88;4862177;29;20443;-78
2023/06/17 01:35:30;;;;;;;14.63;9.48;;;;;;;12.49;79.14;101632.66;4862286;29;20057;-77
2023/06/17 01:38:06;;;;;;;14.82;9.38;;;;;;;12.40;78.70;101614.22;4862584;29;20044;-78
2023/06/17 01:40:32;;;;;;;12.50;9.30;;;;;;;12.45;79.61;101632.91;4862564;29;20029;-78
2023/06/17 01:43:01;;;;;;;11.77;9.13;;;;;;;12.37;79.29;101635.09;4862421;29;20053;-78
2023/06/17 01:45:27;;;;;;;12.85;9.13;;;;;;;12.32;79.80;101630.22;4862319;29;20025;-78
2023/06/17 01:47:53;;;;;;;11.10;9.15;;;;;;;12.28;80.15;101631.28;4861942;29;20086;-78
2023/06/17 01:50:19;;;;;;;12.95;9.30;;;;;;;12.25;80.26;101627.13;4845597;29;20041;-78
2023/06/17 01:52:45;;;;;;;12.52;8.95;;;;;;;12.24;80.12;101628.06;4862388;29;20022;-78
2023/06/17 01:55:11;;;;;;;11.07;9.07;;;;;;;11.90;80.19;101579.97;4862362;29;20086;-78
2023/06/17 01:57:36;;;;;;;16.75;9.85;;;;;;;12.14;80.93;101621.72;4862244;29;20049;-78
2023/06/17 02:00:04;;;;;;;13.52;9.60;;;;;;;12.11;81.06;101632.28;4862012;29;20668;-78
2023/06/17 02:02:29;;;;;;;12.35;9.40;;;;;;;12.08;81.53;101627.25;4861735;29;20033;-78
2023/06/17 02:04:55;;;;;;;13.00;10.00;;;;;;;11.99;81.86;101620.00;4862007;29;20026;-78
2023/06/17 02:07:25;;;;;;;12.85;9.57;;;;;;;11.98;82.18;101628.69;4861940;29;20034;-78
2023/06/17 02:09:51;;;;;;;11.35;9.32;;;;;;;12.00;82.52;101632.03;4861791;29;20040;-77
2023/06/17 02:12:16;;;;;;;10.73;9.63;;;;;;;11.97;82.64;101630.44;4861835;29;20033;-78
2023/06/17 02:14:41;;;;;;;10.95;9.30;;;;;;;11.82;82.90;101613.19;4862074;29;20018;-78
2023/06/17 02:17:08;;;;;;;13.52;9.45;;;;;;;11.87;83.07;101625.84;4861319;29;20037;-78
2023/06/17 02:19:35;;;;;;;11.77;9.65;;;;;;;11.85;83.07;101628.53;4861644;29;20053;-78
2023/06/17 02:22:02;;;;;;;10.90;9.57;;;;;;;11.74;83.52;101612.75;4861844;29;20036;-78
2023/06/17 02:24:27;;;;;;;12.77;10.20;;;;;;;11.76;83.40;101613.47;4860492;29;20486;-78
2023/06/17 02:26:53;;;;;;;11.27;9.68;;;;;;;11.72;84.23;101606.81;4862014;29;20032;-77
2023/06/17 02:29:18;;;;;;;11.88;9.80;;;;;;;11.53;84.41;101582.88;4861454;29;20026;-78
2023/06/17 02:31:44;;;;;;;12.20;10.27;;;;;;;11.58;84.46;101591.22;4861164;29;20048;-78
2023/06/17 02:34:09;;;;;;;13.38;9.88;;;;;;;11.70;84.23;101606.91;4861688;29;20034;-78
2023/06/17 02:36:39;;;;;;;13.32;10.48;;;;;;;11.64;84.05;101611.59;4861576;29;20037;-78
2023/06/17 02:39:05;;;;;;;12.80;10.07;;;;;;;11.65;84.34;101621.00;4861588;29;20077;-78
2023/06/17 02:41:31;;;;;;;12.23;10.20;;;;;;;11.54;84.23;101603.50;4861591;29;20116;-78
2023/06/17 02:43:57;;;;;;;11.68;9.43;;;;;;;11.55;84.08;101601.72;4861160;29;20136;-78
2023/06/17 02:46:24;;;;;;;13.48;9.50;;;;;;;11.46;84.08;101600.47;4861291;29;20085;-78
2023/06/17 02:48:49;;;;;;;11.95;9.80;;;;;;;11.44;84.85;101607.50;4861320;29;20029;-78
2023/06/17 02:51:15;;;;;;;14.10;10.40;;;;;;;11.33;85.24;101589.97;4861283;29;20542;-78
2023/06/17 02:53:41;;;;;;;12.68;9.85;;;;;;;11.40;85.71;101605.97;4861148;29;20041;-78
2023/06/17 02:56:06;;;;;;;13.43;10.05;;;;;;;11.32;85.38;101583.13;4861248;29;20030;-78
2023/06/17 02:58:32;;;;;;;13.00;9.93;;;;;;;11.39;86.02;101599.13;4860989;29;20402;-78
2023/06/17 03:00:57;;;;;;;14.13;10.38;;;;;;;11.23;85.79;101577.63;4861230;29;20100;-79
2023/06/17 03:03:33;;;;;;;11.45;10.10;;;;;;;11.33;86.70;101595.16;4860801;29;20033;-78
2023/06/17 03:06:01;;;;;;;12.23;9.85;;;;;;;11.24;86.44;101584.47;4860912;29;20058;-78
2023/06/17 03:08:31;;;;;;;15.23;11.13;;;;;;;11.28;86.80;101591.97;4860856;29;20033;-78
2023/06/17 03:10:56;;;;;;;19.35;10.88;;;;;;;11.08;87.13;101567.16;4860732;29;20036;-78
2023/06/17 03:13:21;;;;;;;13.98;10.40;;;;;;;11.13;87.21;101567.78;4860292;29;20029;-78
2023/06/17 03:15:47;;;;;;;13.60;9.98;;;;;;;11.26;87.02;101598.13;4860740;29;20120;-78
2023/06/17 03:18:13;;;;;;;17.30;10.50;;;;;;;11.10;87.25;101578.25;4860506;29;20098;-78
2023/06/17 03:20:40;;;;;;;12.57;10.02;;;;;;;11.19;87.12;101587.28;4860594;29;20506;-78
2023/06/17 03:23:05;;;;;;;12.80;10.07;;;;;;;11.18;87.90;101586.44;4860426;29;20100;-78
2023/06/17 03:25:31;;;;;;;14.20;10.70;;;;;;;11.22;87.81;101587.13;4860451;29;20117;-78
2023/06/17 03:28:00;;;;;;;16.60;10.70;;;;;;;11.12;87.70;101570.44;4859121;29;20049;-78
2023/06/17 03:30:26;;;;;;;12.20;10.65;;;;;;;11.17;87.87;101576.19;4860634;29;20026;-78
2023/06/17 03:32:53;;;;;;;12.30;10.70;;;;;;;11.10;87.81;101570.50;4860191;29;20033;-78
2023/06/17 03:35:18;;;;;;;13.68;10.70;;;;;;;11.20;88.08;101592.34;4860289;29;20030;-78
2023/06/17 03:37:43;;;;;;;13.63;10.57;;;;;;;11.16;88.17;101580.53;4860545;29;20037;-79
2023/06/17 03:40:09;;;;;;;13.80;10.82;;;;;;;11.24;87.95;101587.03;4860372;29;20033;-78
2023/06/17 03:42:35;;;;;;;12.15;10.60;;;;;;;11.25;88.07;101593.88;4860206;29;20033;-78
2023/06/17 03:45:00;;;;;;;14.82;11.80;;;;;;;11.09;88.58;101555.91;4860424;29;20033;-78
2023/06/17 03:47:26;;;;;;;16.20;11.77;;;;;;;11.28;88.46;101586.78;4860056;29;20470;-78
2023/06/17 03:49:51;;;;;;;17.17;12.30;;;;;;;11.24;88.68;101577.53;4860352;29;20045;-78
2023/06/17 03:52:16;;;;;;;13.30;11.65;;;;;;;11.32;88.92;101584.88;4860523;29;20065;-76
2023/06/17 03:54:41;;;;;;;15.63;12.85;;;;;;;11.35;89.25;101593.31;4860162;29;20053;-78
2023/06/17 03:57:07;;;;;;;15.40;12.20;;;;;;;11.34;89.05;101589.06;4860351;29;20045;-78
2023/06/17 03:59:32;;;;;;;15.27;12.25;;;;;;;11.40;89.24;101582.69;4860432;29;20072;-78
2023/06/17 04:01:58;;;;;;;14.60;11.77;;;;;;;11.22;89.24;101558.69;4860313;29;20095;-78
2023/06/17 04:04:24;;;;;;;13.27;11.63;;;;;;;11.11;89.26;101535.16;4860011;29;20109;-78
2023/06/17 04:06:49;;;;;;;14.02;12.10;;;;;;;11.43;89.46;101585.13;4860253;29;20438;-79
2023/06/17 04:09:14;;;;;;;16.85;12.88;;;;;;;11.31;89.58;101555.63;4859954;29;20030;-79
2023/06/17 04:11:41;;;;;;;15.75;12.43;;;;;;;11.49;89.50;101580.44;4860108;29;20040;-78
2023/06/17 04:14:06;;;;;;;13.88;12.07;;;;;;;11.54;89.58;101587.97;4843486;29;20034;-78
2023/06/17 04:16:35;;;;;;;15.13;12.68;;;;;;;11.62;90.06;101588.38;4860021;29;20052;-77
2023/06/17 04:19:01;;;;;;;16.80;13.07;;;;;;;11.72;89.80;101586.13;4859674;29;20049;-79
2023/06/17 04:21:27;;;;;;;15.88;13.68;;;;;;;11.75;89.30;101568.66;4858761;29;20102;-79
2023/06/17 04:23:52;;;;;;;15.27;12.98;;;;;;;12.05;88.68;101591.19;4860116;29;20428;-79
2023/06/17 04:26:19;;;;;;;16.35;13.30;;;;;;;12.18;87.77;101584.38;4862841;29;20474;-79
2023/06/17 04:28:45;;;;;;;14.15;12.65;;;;;;;12.19;87.09;101567.06;4863720;29;20037;-79
2023/06/17 04:31:10;;;;;;;14.38;12.82;;;;;;;12.43;86.68;101583.78;4863644;29;20025;-79
2023/06/17 04:33:37;;;;;;;14.13;12.38;;;;;;;12.60;85.81;101580.22;4863426;29;20033;-78
2023/06/17 04:36:08;;;;;;;14.82;12.48;;;;;;;12.72;85.33;101584.66;4863651;29;20026;-79
2023/06/17 04:38:36;;;;;;;14.93;12.45;;;;;;;12.87;84.73;101575.94;4863534;29;20037;-78
2023/06/17 04:41:04;;;;;;;15.82;12.38;;;;;;;13.16;83.80;101586.28;4863565;29;20056;-78
2023/06/17 04:43:30;;;;;;;14.27;12.52;;;;;;;13.18;83.67;101574.94;4863384;29;20032;-79
2023/06/17 04:45:56;;;;;;;13.85;12.10;;;;;;;13.45;83.00;101580.16;4863414;29;20382;-79
2023/06/17 04:48:22;;;;;;;19.10;12.40;;;;;;;13.46;82.97;101586.19;4863129;29;20474;-79
2023/06/17 04:50:48;;;;;;;15.25;12.30;;;;;;;13.59;82.66;101588.84;4863427;29;20025;-79
2023/06/17 04:53:13;;;;;;;16.23;13.23;;;;;;;13.61;82.92;101585.22;4863364;29;20049;-78
2023/06/17 04:55:39;;;;;;;13.90;12.23;;;;;;;13.64;82.65;101595.41;4863204;29;20033;-78
2023/06/17 04:58:04;;;;;;;15.75;12.23;;;;;;;13.69;83.13;101597.72;4863215;29;20086;-79
2023/06/17 05:00:30;;;;;;;14.45;12.30;;;;;;;13.75;83.24;101585.16;4863184;29;20025;-78
2023/06/17 05:02:56;;;;;;;14.50;12.95;;;;;;;14.04;83.02;101591.06;4862995;29;20051;-78
2023/06/17 05:05:22;;;;;;;13.85;12.13;;;;;;;14.31;82.95;101603.19;4863001;29;20029;-79
2023/06/17 05:07:47;;;;;;;13.98;12.10;;;;;;;14.62;82.02;101600.22;4858726;23;20046;-78
2023/06/17 05:10:13;;;;;;;14.07;12.23;;;;;;;14.82;80.83;101565.06;4844451;29;20086;-80
2023/06/17 05:12:40;;;;;;;14.75;11.88;;;;;;;15.29;79.47;101588.69;4844389;29;20509;-80
2023/06/17 05:15:06;;;;;;;17.08;13.63;;;;;;;15.73;76.52;101572.53;4844503;29;20044;-81
2023/06/17 05:17:31;;;;;;;15.15;13.20;;;;;;;16.06;76.56;101577.88;4844415;29;20113;-81
2023/06/17 05:19:57;;;;;;;15.30;11.48;;;;;;;16.50;74.49;101567.66;4843960;29;20521;-81
2023/06/17 05:22:22;;;;;;;13.05;11.60;;;;;;;17.33;70.78;101578.56;4844349;29;20041;-81
2023/06/17 05:24:47;;;;;;;16.67;13.77;;;;;;;18.22;67.72;101587.06;4843170;29;20103;-80
2023/06/17 05:27:13;;;;;;;16.27;11.73;;;;;;;19.22;64.53;101592.50;4844364;29;20110;-81
2023/06/17 05:29:38;;;;;;;19.17;13.38;;;;;;;20.19;60.50;101583.75;4844061;29;20562;-80
2023/06/17 05:32:04;;;;;;;14.27;12.80;;;;;;;20.71;57.63;101551.84;4844080;29;20029;-80
2023/06/17 05:34:29;;;;;;;17.13;13.45;;;;;;;21.89;54.85;101586.78;4843871;29;20036;-81
2023/06/17 05:36:55;;;;;;;12.77;11.30;;;;;;;22.89;52.46;101585.50;4843765;29;20387;-81
2023/06/17 05:39:20;;;;;;;14.15;11.55;;;;;;;23.87;48.65;101583.09;4843510;29;20045;-81
2023/06/17 05:41:46;;;;;;;12.90;11.35;;;;;;;24.96;46.16;101577.25;4844261;29;20045;-82
2023/06/17 05:44:11;;;;;;;12.07;9.85;;;;;;;25.36;44.25;101584.16;4842589;29;20038;-82
2023/06/17 05:46:36;;;;;;;13.50;10.30;;;;;;;25.50;43.48;101551.69;4844101;29;20033;-81
2023/06/17 05:49:02;;;;;;;13.05;11.55;;;;;;;26.00;42.99;101584.69;4843777;29;20407;-81
2023/06/17 05:51:28;;;;;;;15.88;11.38;;;;;;;26.79;42.37;101585.03;4843790;29;20037;-82
2023/06/17 05:53:53;;;;;;;13.00;11.07;;;;;;;27.34;40.48;101581.84;4843874;29;20058;-81
2023/06/17 05:56:19;;;;;;;15.77;11.40;;;;;;;27.64;38.96;101566.59;4843696;29;20058;-81
2023/06/17 05:58:44;;;;;;;12.15;10.23;;;;;;;28.30;38.46;101579.59;4843828;29;20033;-82
2023/06/17 06:01:10;;;;;;;12.07;10.35;;;;;;;28.69;37.52;101583.50;4843821;29;20022;-82
2023/06/17 06:03:35;;;;;;;13.27;10.23;;;;;;;29.52;35.64;101579.72;4843287;29;20030;-82
2023/06/17 06:06:00;;;;;;;14.70;11.27;;;;;;;29.10;36.75;101583.47;4843549;29;20042;-82
2023/06/17 06:08:26;;;;;;;12.88;10.63;;;;;;;29.83;35.68;101589.75;4843219;29;20058;-81
2023/06/17 06:10:51;;;;;;;15.05;11.00;;;;;;;29.70;35.22;101590.56;4843588;29;20368;-83
2023/06/17 06:13:17;;;;;;;11.25;10.05;;;;;;;29.65;35.25;101578.88;4855278;29;20078;-82
2023/06/17 06:15:42;;;;;;;11.93;10.73;;;;;;;30.02;34.09;101587.28;4861708;29;20041;-82
2023/06/17 06:18:07;;;;;;;12.75;10.50;;;;;;;30.34;33.45;101588.28;4861916;29;20034;-82
2023/06/17 06:20:33;;;;;;;12.50;11.20;;;;;;;29.82;33.84;101588.13;4861598;29;20068;-81
2023/06/17 06:22:58;;;;;;;11.57;10.30;;;;;;;29.51;35.24;101591.38;4862088;29;20042;-81
2023/06/17 06:25:24;;;;;;;11.02;9.90;;;;;;;30.09;33.99;101569.47;4860675;29;20034;-83
2023/06/17 06:27:52;;;;;;;12.02;10.35;;;;;;;30.25;33.64;101550.38;4861485;29;20033;-82
2023/06/17 06:30:20;;;;;;;12.05;10.35;;;;;;;30.36;33.80;101578.22;4861342;29;20121;-81
2023/06/17 06:32:45;;;;;;;11.55;10.35;;;;;;;30.80;33.56;101583.66;4861571;29;20104;-81
2023/06/17 06:35:11;;;;;;;11.68;9.73;;;;;;;31.22;31.97;101583.25;4859358;29;20116;-81
2023/06/17 06:37:36;;;;;;;10.07;8.75;;;;;;;31.59;31.81;101574.38;4861282;29;20113;-82
2023/06/17 06:40:03;;;;;;;10.13;9.10;;;;;;;31.87;30.82;101581.16;4862202;29;20033;-83
2023/06/17 06:42:29;;;;;;;13.23;9.38;;;;;;;31.63;29.56;101538.16;4861437;29;20032;-84
2023/06/17 06:44:54;;;;;;;12.75;9.68;;;;;;;31.06;31.49;101589.88;4861169;29;20247;-81
2023/06/17 06:47:20;;;;;;;11.30;9.10;;;;;;;30.89;32.13;101583.41;4860742;29;20082;-80
2023/06/17 06:49:49;;;;;;;10.27;8.40;;;;;;;31.45;30.74;101574.66;4861286;29;20545;-82
2023/06/17 06:52:14;;;;;;;10.25;8.23;;;;;;;31.52;30.52;101570.94;4860996;29;20505;-79
2023/06/17 06:54:39;;;;;;;12.70;9.98;;;;;;;31.51;29.38;101553.28;4861091;29;20049;-80
2023/06/17 06:57:05;;;;;;;11.10;9.60;;;;;;;31.78;29.50;101585.97;4861012;29;20041;-78
2023/06/17 06:59:31;;;;;;;12.77;9.27;;;;;;;31.85;28.68;101573.34;4859547;29;20053;-80
2023/06/17 07:01:56;;;;;;;10.30;8.80;;;;;;;32.43;28.69;101578.31;4861030;29;20031;-79
2023/06/17 07:04:22;;;;;;;10.80;9.70;;;;;;;32.40;27.54;101580.63;4853385;29;20410;-78
2023/06/17 07:06:47;;;;;;;11.40;9.27;;;;;;;32.65;28.70;101584.06;4842360;29;20049;-77
2023/06/17 07:09:12;;;;;;;12.13;10.10;;;;;;;33.18;26.97;101578.00;4842202;29;20090;-79
2023/06/17 07:11:38;;;;;;;11.25;9.02;;;;;;;32.84;28.02;101581.34;4842190;29;20029;-78
2023/06/17 07:14:03;;;;;;;10.07;7.78;;;;;;;32.92;26.51;101583.72;4842293;29;20466;-78
2023/06/17 07:16:29;;;;;;;12.73;9.65;;;;;;;32.80;26.21;101557.72;4842440;29;20037;-79
2023/06/17 07:18:55;;;;;;;11.27;7.80;;;;;;;32.80;25.45;101552.38;4859026;29;20415;-80
2023/06/17 07:21:20;;;;;;;10.48;9.30;;;;;;;32.79;26.48;101548.06;4859873;29;20042;-80
2023/06/17 07:23:45;;;;;;;11.70;9.10;;;;;;;33.51;26.13;101577.53;4860666;29;20030;-80
2023/06/17 07:26:11;;;;;;;10.63;9.52;;;;;;;33.79;25.37;101586.75;4860708;29;20053;-81
2023/06/17 07:28:36;;;;;;;11.65;9.35;;;;;;;33.88;26.03;101583.53;4859067;29;20097;-80
2023/06/17 07:31:01;;;;;;;9.95;8.90;;;;;;;34.18;26.22;101577.22;4860721;29;20052;-80
2023/06/17 07:33:27;;;;;;;12.70;10.32;;;;;;;34.49;24.48;101566.09;4860546;29;20459;-80
2023/06/17 07:35:52;;;;;;;12.25;9.70;;;;;;;34.16;25.20;101584.69;4860381;29;20065;-80
2023/06/17 07:38:18;;;;;;;9.85;8.85;;;;;;;34.85;24.36;101580.22;4860518;29;20096;-79
2023/06/17 07:40:46;;;;;;;10.43;8.27;;;;;;;34.01;23.95;101576.28;4860280;29;20036;-80
2023/06/17 07:43:12;;;;;;;10.88;8.50;;;;;;;32.00;25.96;101561.50;4859083;29;20030;-79
2023/06/17 07:45:37;;;;;;;11.20;8.93;;;;;;;30.34;28.73;101585.63;4860304;29;20112;-79
2023/06/17 07:48:03;;;;;;;12.27;8.95;;;;;;;28.68;31.15;101584.50;4859088;29;20037;-79
2023/06/17 07:50:28;;;;;;;9.45;8.43;;;;;;;27.47;33.80;101588.28;4860034;29;20045;-77
2023/06/17 07:52:54;;;;;;;10.75;8.45;;;;;;;26.62;35.19;101586.22;4843638;29;20049;-80
2023/06/17 07:55:20;;;;;;;10.80;8.43;;;;;;;26.05;35.95;101562.97;4860072;29;20497;-79
2023/06/17 07:57:45;;;;;;;10.10;8.10;;;;;;;25.57;38.24;101575.59;4860447;29;20034;-78
2023/06/17 08:00:17;;;;;;;10.52;8.48;;;;;;;25.25;37.88;101585.38;4860139;29;20060;-80
2023/06/17 08:02:43;;;;;;;13.18;9.23;;;;;;;24.82;38.41;101571.69;4860408;29;20037;-79
2023/06/17 08:05:09;;;;;;;11.85;8.77;;;;;;;24.38;39.49;101546.75;4860275;29;20081;-79
2023/06/17 08:07:35;;;;;;;10.30;7.78;;;;;;;24.27;40.34;101551.38;4860035;29;20047;-79
2023/06/17 08:10:00;;;;;;;9.95;8.30;;;;;;;24.25;40.96;101569.19;4843171;29;20553;-79
2023/06/17 08:12:26;;;;;;;9.93;8.65;;;;;;;24.26;40.08;101567.38;4860122;29;20041;-80
2023/06/17 08:14:51;;;;;;;9.90;7.88;;;;;;;24.16;40.29;101567.56;4860289;29;20112;-80
2023/06/17 08:17:17;;;;;;;8.90;7.82;;;;;;;24.11;38.87;101556.69;4860249;29;20041;-82
2023/06/17 08:19:42;;;;;;;9.07;5.95;;;;;;;24.13;38.14;101564.44;4860121;29;20038;-80
2023/06/17 08:22:08;;;;;;;7.45;5.93;;;;;;;24.13;39.86;101570.53;4843460;29;20542;-81
2023/06/17 08:24:34;;;;;;;11.13;8.10;;;;;;;23.70;38.82;101574.38;4860106;29;20045;-77
2023/06/17 08:26:59;;;;;;;7.78;6.28;;;;;;;23.58;41.71;101567.72;4859820;29;20034;-80
2023/06/17 08:29:25;;;;;;;9.80;6.30;;;;;;;23.80;41.84;101571.56;4860239;29;20475;-79
2023/06/17 08:31:52;;;;;;;7.57;5.72;;;;;;;23.89;40.27;101579.31;4860297;29;20386;-82
2023/06/17 08:34:19;;;;;;;8.93;5.80;;;;;;;24.05;41.05;101567.91;4860212;29;20030;-81
2023/06/17 08:36:46;;;;;;;9.40;6.30;;;;;;;24.24;39.30;101562.28;4860004;29;20053;-80
2023/06/17 08:39:12;;;;;;;8.95;6.00;;;;;;;24.40;37.25;101568.56;4860064;29;20438;-83
2023/06/17 08:41:39;;;;;;;8.45;5.80;;;;;;;24.19;37.08;101554.03;4860054;29;20386;-78
2023/06/17 08:44:06;;;;;;;7.53;5.05;;;;;;;24.11;36.89;101540.88;4843608;29;20522;-80
2023/06/17 08:46:32;;;;;;;9.30;5.60;;;;;;;24.26;36.13;101559.47;4860037;29;20080;-76
2023/06/17 08:48:58;;;;;;;7.07;4.90;;;;;;;24.26;38.84;101567.38;4859905;29;20026;-79
2023/06/17 08:51:24;;;;;;;7.47;5.78;;;;;;;24.19;36.63;101548.78;4859770;29;20033;-82
2023/06/17 08:53:51;;;;;;;8.02;5.05;;;;;;;24.44;38.54;101564.56;4860117;29;20386;-80
2023/06/17 08:56:17;;;;;;;7.00;5.00;;;;;;;24.35;36.25;101547.91;4859667;29;20021;-83
2023/06/17 08:58:43;;;;;;;6.88;5.07;;;;;;;24.42;32.66;101570.03;4860086;29;20598;-82
2023/06/17 09:01:10;;;;;;;6.53;3.88;;;;;;;24.27;32.79;101540.81;4859848;29;20073;-81
2023/06/17 09:03:39;;;;;;;7.68;4.82;;;;;;;24.47;35.35;101566.84;4859650;29;20044;-81
2023/06/17 09:06:26;;;;;;;10.55;5.57;;;;;;;24.46;33.88;101566.03;4859639;29;20105;-80
2023/06/17 09:08:53;;;;;;;8.32;5.10;;;;;;;24.31;34.33;101541.34;4859608;29;20388;-82
2023/06/17 09:13:53;;;;;;;9.65;5.85;;;;;;;23.53;34.23;101422.38;5018913;23;20414;-82
2023/06/17 09:23:16;;;;;;;;;;;;;;;24.36;36.18;101559.31;4824510;29;20053;-80
2023/06/17 09:25:41;;;;;;;9.63;7.03;;;;;;;24.19;35.74;101537.38;4823762;29;20297;-80
2023/06/17 09:28:09;;;;;;;10.45;5.70;;;;;;;24.47;37.58;101559.75;4823752;29;20034;-80
2023/06/17 09:30:41;;;;;;;8.80;6.95;;;;;;;24.32;34.85;101543.00;4823710;29;20046;-80
2023/06/17 09:33:17;;;;;;;7.70;6.32;;;;;;;24.46;35.94;101544.91;4808334;29;20061;-81
2023/06/17 09:35:43;;;;;;;9.02;6.88;;;;;;;24.69;36.58;101555.59;4833261;24;20042;-80
2023/06/17 09:38:09;;;;;;;9.95;7.35;;;;;;;24.59;36.57;101566.34;4843897;29;20044;-81
2023/06/17 09:40:34;;;;;;;10.98;6.45;;;;;;;24.59;35.22;101545.22;4843929;29;20048;-82
2023/06/17 09:43:06;;;;;;;8.82;5.40;;;;;;;23.89;35.45;101409.63;4859553;24;20209;-83
2023/06/17 09:45:31;;;;;;;8.02;5.45;;;;;;;24.19;36.61;101443.19;4843884;29;20030;-80
2023/06/17 09:47:58;;;;;;;10.13;5.50;;;;;;;24.95;34.02;101551.81;4843646;29;20397;-82
2023/06/17 09:50:24;;;;;;;9.30;6.05;;;;;;;24.80;34.07;101542.00;4843684;29;20116;-82
2023/06/17 09:52:55;;;;;;;9.40;5.32;;;;;;;24.80;36.39;101527.97;4843630;29;20105;-81
2023/06/17 09:55:22;;;;;;;7.60;5.97;;;;;;;24.70;34.95;101528.16;4843889;29;20026;-80
2023/06/17 09:57:53;;;;;;;7.80;5.57;;;;;;;24.73;35.98;101514.59;4843711;29;20494;-82
2023/06/17 10:00:19;;;;;;;;;;;;;;;25.01;36.26;101545.84;4842682;29;20046;-81
2023/06/17 10:02:45;;;;;;;8.93;5.63;;;;;;;24.94;35.85;101526.38;4843550;29;20408;-80
2023/06/17 10:05:11;;;;;;;7.80;5.22;;;;;;;25.16;35.82;101546.75;4843582;29;20061;-81
2023/06/17 10:07:38;;;;;;;8.80;4.70;;;;;;;25.35;36.65;101550.78;4843399;29;20037;-81
2023/06/17 10:10:06;;;;;;;8.45;5.90;;;;;;;24.91;33.71;101495.88;4843253;29;20129;-82
2023/06/17 10:12:35;;;;;;;9.23;6.35;;;;;;;25.02;33.70;101547.53;4843229;29;20467;-79
2023/06/17 10:15:02;;;;;;;9.20;5.20;;;;;;;25.06;35.31;101532.94;4843256;29;20022;-78
2023/06/17 10:17:28;;;;;;;8.38;5.40;;;;;;;25.17;35.63;101521.97;4843423;29;20034;-80
2023/06/17 10:19:55;;;;;;;8.90;5.32;;;;;;;25.16;33.69;101539.66;4843300;29;20166;-81
2023/06/17 10:22:22;;;;;;;9.63;5.03;;;;;;;25.04;33.72;101512.00;4842012;29;20037;-78
2023/06/17 10:24:48;;;;;;;8.25;5.47;;;;;;;25.15;33.94;101527.44;4843260;29;20030;-81
2023/06/17 10:27:13;;;;;;;9.60;5.60;;;;;;;25.23;33.91;101526.56;4843500;29;20049;-82
2023/06/17 10:29:44;;;;;;;6.68;5.00;;;;;;;25.35;33.28;101534.91;4843109;29;20431;-82
2023/06/17 10:32:22;;;;;;;7.60;4.57;;;;;;;25.35;33.19;101526.97;4843041;29;20034;-82
2023/06/17 10:35:06;;;;;;;7.10;4.35;;;;;;;25.45;34.25;101522.28;4842988;29;20114;-80
2023/06/17 10:37:38;;;;;;;6.68;4.57;;;;;;;25.49;33.30;101509.53;4842966;29;20030;-80
2023/06/17 10:40:18;;;;;;;6.10;4.07;;;;;;;25.78;33.14;101524.69;4842996;29;20041;-82
2023/06/17 10:42:55;;;;;;;7.05;4.70;;;;;;;25.72;32.58;101513.81;4848019;29;20049;-80
2023/06/17 10:45:20;;;;;;;5.82;4.32;;;;;;;25.78;32.77;101514.13;4842930;29;20037;-82
2023/06/17 10:47:46;;;;;;;8.93;4.68;;;;;;;25.74;32.00;101513.63;4842864;29;20030;-81
2023/06/17 10:50:14;;;;;;;7.30;5.00;;;;;;;25.72;33.29;101491.84;4842741;29;20037;-82
2023/06/17 10:52:39;;;;;;;9.55;4.93;;;;;;;25.71;31.99;101498.13;4842689;29;20034;-81
2023/06/17 10:55:05;;;;;;;7.05;4.90;;;;;;;25.65;31.83;101491.69;4842807;29;20391;-80
2023/06/17 10:57:35;;;;;;;8.13;4.85;;;;;;;25.64;31.72;101503.28;4841088;29;20038;-80
2023/06/17 11:00:06;;;;;;;8.60;5.00;;;;;;;25.72;33.33;101505.88;4842625;29;20317;-79
2023/06/17 11:02:32;;;;;;;7.65;4.78;;;;;;;25.74;34.02;101479.25;4842740;29;20294;-79
2023/06/17 11:04:58;;;;;;;7.97;5.10;;;;;;;25.63;32.14;101469.88;4842580;29;20359;-82
2023/06/17 11:07:27;;;;;;;6.57;4.63;;;;;;;25.79;32.83;101500.69;4842481;29;20065;-80
2023/06/17 11:09:53;;;;;;;7.20;5.07;;;;;;;25.64;32.49;101470.72;4856543;29;20121;-79
2023/06/17 11:12:18;;;;;;;6.15;4.53;;;;;;;25.65;32.88;101491.69;4842227;29;20078;-80
2023/06/17 11:14:45;;;;;;;6.25;3.90;;;;;;;25.66;32.00;101497.78;4842322;29;20102;-80
2023/06/17 11:17:10;;;;;;;9.30;4.80;;;;;;;25.66;30.83;101493.34;4842381;29;20030;-79
2023/06/17 11:19:35;;;;;;;8.02;4.40;;;;;;;25.65;30.87;101475.81;4842388;29;20163;-79
2023/06/17 11:22:04;;;;;;;6.10;4.30;;;;;;;25.79;31.64;101499.88;4842254;29;20021;-82
2023/06/17 11:24:30;;;;;;;7.00;4.38;;;;;;;25.79;30.03;101479.53;4842168;29;20381;-80